BAW821 EKCH-EGLL
Flight info
| Callsign | BAW821 |
|---|---|
| Flight time | 1h 39m |
| Altitude | 36000 |
| Route | LANGO DCT RAXLU DCT JUIST DCT ABNED L980 LOGAN |
| Aircraft | A320/M-SDE3FGHIRWY/LB1 |
Departure
| Time | 2026-05-04 17:40 |
|---|---|
| Airport | Copenhagen Kastrup Airport (EKCH) |
Arrival
| Time | 2026-05-04 19:20 |
|---|---|
| Airport | London Heathrow Airport (EGLL) |
| Time | Latitude | Longitude | Altitude | Speed | Heading |
|---|---|---|---|---|---|
| 2026-05-04 16:43 | 55.62700 | 12.65079 | 26 ft | 0 kts | 291° |
| 2026-05-04 17:28 | 55.62688 | 12.65134 | 26 ft | 4 kts | 289° |
| 2026-05-04 17:29 | 55.62658 | 12.65264 | 26 ft | 4 kts | 289° |
| 2026-05-04 17:29 | 55.62655 | 12.65285 | 25 ft | 0 kts | 268° |
| 2026-05-04 17:33 | 55.62532 | 12.65183 | 24 ft | 15 kts | 179° |
| 2026-05-04 17:33 | 55.62418 | 12.65199 | 24 ft | 18 kts | 178° |
| 2026-05-04 17:34 | 55.62308 | 12.64993 | 26 ft | 8 kts | 306° |
| 2026-05-04 17:34 | 55.62344 | 12.64896 | 24 ft | 12 kts | 302° |
| 2026-05-04 17:35 | 55.62324 | 12.64699 | 24 ft | 4 kts | 246° |
| 2026-05-04 17:35 | 55.62323 | 12.64691 | 24 ft | 0 kts | 246° |
| 2026-05-04 17:35 | 55.62317 | 12.64670 | 24 ft | 7 kts | 246° |
| 2026-05-04 17:36 | 55.62284 | 12.64533 | 23 ft | 16 kts | 246° |
| 2026-05-04 17:36 | 55.62213 | 12.64357 | 21 ft | 20 kts | 211° |
| 2026-05-04 17:36 | 55.62114 | 12.64272 | 25 ft | 15 kts | 205° |
| 2026-05-04 17:36 | 55.62016 | 12.64190 | 25 ft | 17 kts | 205° |
| 2026-05-04 17:37 | 55.61914 | 12.64103 | 25 ft | 15 kts | 206° |
| 2026-05-04 17:37 | 55.61826 | 12.64072 | 24 ft | 0 kts | 176° |
| 2026-05-04 17:38 | 55.61797 | 12.64075 | 24 ft | 9 kts | 176° |
| 2026-05-04 17:38 | 55.61751 | 12.64081 | 27 ft | 1 kts | 175° |
| 2026-05-04 17:38 | 55.61683 | 12.64090 | 26 ft | 20 kts | 175° |
| 2026-05-04 17:38 | 55.61595 | 12.64022 | 27 ft | 0 kts | 221° |
| 2026-05-04 17:39 | 55.61510 | 12.63889 | 28 ft | 49 kts | 221° |
| 2026-05-04 17:40 | 55.61092 | 12.63243 | 27 ft | 108 kts | 221° |
| 2026-05-04 17:40 | 55.60410 | 12.62187 | 25 ft | 152 kts | 221° |
| 2026-05-04 17:40 | 55.59559 | 12.60882 | 386 ft | 162 kts | 223° |
| 2026-05-04 17:40 | 55.58709 | 12.59602 | 1028 ft | 162 kts | 224° |
| 2026-05-04 17:41 | 55.57835 | 12.58248 | 1533 ft | 176 kts | 225° |
| 2026-05-04 17:41 | 55.56862 | 12.56716 | 1831 ft | 199 kts | 227° |
| 2026-05-04 17:41 | 55.56113 | 12.54566 | 2150 ft | 218 kts | 249° |
| 2026-05-04 17:41 | 55.55402 | 12.52040 | 2524 ft | 243 kts | 242° |
| 2026-05-04 17:42 | 55.54509 | 12.49450 | 3261 ft | 252 kts | 240° |
| 2026-05-04 17:42 | 55.53551 | 12.46821 | 4159 ft | 256 kts | 239° |
| 2026-05-04 17:42 | 55.52581 | 12.44181 | 5092 ft | 257 kts | 239° |
| 2026-05-04 17:42 | 55.51612 | 12.41524 | 6026 ft | 258 kts | 240° |
| 2026-05-04 17:43 | 55.50691 | 12.38969 | 6870 ft | 259 kts | 240° |
| 2026-05-04 17:43 | 55.49728 | 12.36269 | 7725 ft | 261 kts | 240° |
| 2026-05-04 17:43 | 55.48761 | 12.33542 | 8547 ft | 264 kts | 240° |
| 2026-05-04 17:43 | 55.47803 | 12.30825 | 9366 ft | 266 kts | 240° |
| 2026-05-04 17:44 | 55.46818 | 12.28033 | 10116 ft | 271 kts | 240° |
| 2026-05-04 17:44 | 55.45788 | 12.25107 | 10418 ft | 291 kts | 240° |
| 2026-05-04 17:44 | 55.44700 | 12.22025 | 10931 ft | 300 kts | 240° |
| 2026-05-04 17:44 | 55.43585 | 12.18876 | 11625 ft | 304 kts | 240° |
| 2026-05-04 17:45 | 55.42465 | 12.15717 | 12337 ft | 306 kts | 240° |
| 2026-05-04 17:45 | 55.41333 | 12.12531 | 13058 ft | 308 kts | 240° |
| 2026-05-04 17:45 | 55.40189 | 12.09318 | 13769 ft | 311 kts | 240° |
| 2026-05-04 17:45 | 55.39038 | 12.06091 | 14384 ft | 313 kts | 240° |
| 2026-05-04 17:46 | 55.37876 | 12.02831 | 14994 ft | 315 kts | 240° |
| 2026-05-04 17:46 | 55.36708 | 11.99553 | 15603 ft | 318 kts | 240° |
| 2026-05-04 17:46 | 55.35928 | 11.97370 | 15993 ft | 319 kts | 240° |
| 2026-05-04 17:46 | 55.34738 | 11.94050 | 16583 ft | 322 kts | 240° |
| 2026-05-04 17:47 | 55.33542 | 11.90711 | 17177 ft | 325 kts | 240° |
| 2026-05-04 17:47 | 55.32334 | 11.87336 | 17771 ft | 327 kts | 240° |
| 2026-05-04 17:47 | 55.31112 | 11.83932 | 18346 ft | 330 kts | 240° |
| 2026-05-04 17:47 | 55.29880 | 11.80510 | 18856 ft | 333 kts | 240° |
| 2026-05-04 17:48 | 55.28637 | 11.77058 | 19367 ft | 336 kts | 240° |
| 2026-05-04 17:48 | 55.27382 | 11.73579 | 19887 ft | 339 kts | 240° |
| 2026-05-04 17:48 | 55.26112 | 11.70062 | 20391 ft | 342 kts | 240° |
| 2026-05-04 17:48 | 55.24833 | 11.66525 | 20876 ft | 345 kts | 240° |
| 2026-05-04 17:49 | 55.23537 | 11.62964 | 21341 ft | 348 kts | 239° |
| 2026-05-04 17:49 | 55.22215 | 11.59372 | 21772 ft | 352 kts | 239° |
| 2026-05-04 17:49 | 55.20878 | 11.55768 | 22229 ft | 354 kts | 239° |
| 2026-05-04 17:49 | 55.19529 | 11.52139 | 22692 ft | 357 kts | 239° |
| 2026-05-04 17:50 | 55.18170 | 11.48486 | 23157 ft | 360 kts | 239° |
| 2026-05-04 17:50 | 55.16858 | 11.44957 | 23589 ft | 363 kts | 239° |
| 2026-05-04 17:50 | 55.15480 | 11.41251 | 23987 ft | 365 kts | 239° |
| 2026-05-04 17:50 | 55.14088 | 11.37514 | 24350 ft | 368 kts | 239° |
| 2026-05-04 17:51 | 55.12690 | 11.33772 | 24781 ft | 369 kts | 239° |
| 2026-05-04 17:51 | 55.11303 | 11.30060 | 25188 ft | 370 kts | 239° |
| 2026-05-04 17:51 | 55.09890 | 11.26287 | 25584 ft | 372 kts | 239° |
| 2026-05-04 17:51 | 55.08456 | 11.22462 | 25983 ft | 373 kts | 239° |
| 2026-05-04 17:52 | 55.07032 | 11.18659 | 26380 ft | 375 kts | 239° |
| 2026-05-04 17:52 | 55.05601 | 11.14839 | 26767 ft | 377 kts | 239° |
| 2026-05-04 17:52 | 55.04165 | 11.11012 | 27159 ft | 378 kts | 238° |
| 2026-05-04 17:52 | 55.02719 | 11.07166 | 27543 ft | 380 kts | 238° |
| 2026-05-04 17:53 | 55.01265 | 11.03309 | 27986 ft | 378 kts | 239° |
| 2026-05-04 17:53 | 54.99834 | 10.99524 | 28691 ft | 372 kts | 239° |
| 2026-05-04 17:53 | 54.98414 | 10.95780 | 29205 ft | 371 kts | 239° |
| 2026-05-04 17:53 | 54.96982 | 10.92011 | 29416 ft | 376 kts | 239° |
| 2026-05-04 17:54 | 54.95530 | 10.88187 | 29710 ft | 380 kts | 239° |
| 2026-05-04 17:54 | 54.94071 | 10.84344 | 30060 ft | 382 kts | 238° |
| 2026-05-04 17:54 | 54.92587 | 10.80494 | 30367 ft | 384 kts | 238° |
| 2026-05-04 17:54 | 54.91119 | 10.76739 | 30660 ft | 387 kts | 238° |
| 2026-05-04 17:55 | 54.89554 | 10.72771 | 30952 ft | 390 kts | 238° |
| 2026-05-04 17:55 | 54.88014 | 10.68881 | 31241 ft | 392 kts | 238° |
| 2026-05-04 17:55 | 54.86474 | 10.64988 | 31514 ft | 395 kts | 238° |
| 2026-05-04 17:55 | 54.84942 | 10.61108 | 31783 ft | 397 kts | 238° |
| 2026-05-04 17:56 | 54.83377 | 10.57146 | 32122 ft | 398 kts | 238° |
| 2026-05-04 17:56 | 54.81812 | 10.53190 | 32507 ft | 398 kts | 237° |
| 2026-05-04 17:56 | 54.80253 | 10.49248 | 32881 ft | 396 kts | 238° |
| 2026-05-04 17:56 | 54.78701 | 10.45325 | 33462 ft | 392 kts | 238° |
| 2026-05-04 17:57 | 54.77159 | 10.41436 | 33893 ft | 391 kts | 238° |
| 2026-05-04 17:57 | 54.75666 | 10.37499 | 34195 ft | 391 kts | 240° |
| 2026-05-04 17:57 | 54.74237 | 10.33489 | 34465 ft | 392 kts | 241° |
| 2026-05-04 17:57 | 54.72845 | 10.29436 | 34729 ft | 392 kts | 241° |
| 2026-05-04 17:58 | 54.71461 | 10.25359 | 34991 ft | 393 kts | 241° |
| 2026-05-04 17:58 | 54.70070 | 10.21275 | 35249 ft | 394 kts | 241° |
| 2026-05-04 17:58 | 54.68670 | 10.17205 | 35504 ft | 395 kts | 241° |
| 2026-05-04 17:58 | 54.67253 | 10.13136 | 35757 ft | 395 kts | 240° |
| 2026-05-04 17:59 | 54.65821 | 10.09070 | 35943 ft | 397 kts | 240° |
| 2026-05-04 17:59 | 54.64402 | 10.05071 | 35993 ft | 391 kts | 240° |
| 2026-05-04 18:00 | 54.60201 | 9.93262 | 35995 ft | 386 kts | 240° |
| 2026-05-04 18:00 | 54.57407 | 9.85395 | 35998 ft | 384 kts | 240° |
| 2026-05-04 18:01 | 54.54614 | 9.77558 | 36001 ft | 383 kts | 240° |
| 2026-05-04 18:01 | 54.51815 | 9.69734 | 36011 ft | 384 kts | 240° |
| 2026-05-04 18:02 | 54.47611 | 9.57996 | 36009 ft | 385 kts | 240° |
| 2026-05-04 18:02 | 54.44790 | 9.50158 | 36017 ft | 385 kts | 240° |
| 2026-05-04 18:03 | 54.41959 | 9.42334 | 36017 ft | 386 kts | 240° |
| 2026-05-04 18:03 | 54.39124 | 9.34510 | 36019 ft | 386 kts | 240° |
| 2026-05-04 18:04 | 54.36286 | 9.26698 | 36011 ft | 385 kts | 240° |
| 2026-05-04 18:05 | 54.32025 | 9.15020 | 36023 ft | 385 kts | 240° |
| 2026-05-04 18:05 | 54.29172 | 9.07261 | 36025 ft | 385 kts | 239° |
| 2026-05-04 18:06 | 54.24893 | 8.95638 | 36029 ft | 385 kts | 239° |
| 2026-05-04 18:06 | 54.22037 | 8.87914 | 36028 ft | 385 kts | 239° |
| 2026-05-04 18:07 | 54.19169 | 8.80178 | 36028 ft | 385 kts | 239° |
| 2026-05-04 18:07 | 54.16310 | 8.72488 | 36016 ft | 385 kts | 239° |
| 2026-05-04 18:08 | 54.13583 | 8.65178 | 36023 ft | 385 kts | 239° |
| 2026-05-04 18:08 | 54.10710 | 8.57487 | 36025 ft | 384 kts | 239° |
| 2026-05-04 18:09 | 54.04940 | 8.42161 | 36039 ft | 384 kts | 239° |
| 2026-05-04 18:10 | 54.02051 | 8.34501 | 36031 ft | 385 kts | 239° |
| 2026-05-04 18:10 | 53.99168 | 8.26884 | 36032 ft | 386 kts | 239° |
| 2026-05-04 18:11 | 53.96264 | 8.19235 | 36011 ft | 385 kts | 238° |
| 2026-05-04 18:11 | 53.93353 | 8.11602 | 36026 ft | 385 kts | 238° |
| 2026-05-04 18:12 | 53.90439 | 8.03985 | 36030 ft | 385 kts | 238° |
| 2026-05-04 18:12 | 53.87521 | 7.96386 | 36030 ft | 384 kts | 238° |
| 2026-05-04 18:13 | 53.84604 | 7.88803 | 36030 ft | 384 kts | 238° |
| 2026-05-04 18:14 | 53.80314 | 7.77671 | 36034 ft | 385 kts | 238° |
| 2026-05-04 18:14 | 53.77509 | 7.70431 | 36029 ft | 385 kts | 238° |
| 2026-05-04 18:15 | 53.71691 | 7.55500 | 36018 ft | 384 kts | 238° |
| 2026-05-04 18:16 | 53.68756 | 7.47987 | 36031 ft | 384 kts | 238° |
| 2026-05-04 18:16 | 53.65823 | 7.40493 | 36032 ft | 384 kts | 238° |
| 2026-05-04 18:17 | 53.61528 | 7.29558 | 36031 ft | 384 kts | 238° |
| 2026-05-04 18:18 | 53.57092 | 7.18339 | 36036 ft | 384 kts | 237° |
| 2026-05-04 18:18 | 53.54137 | 7.10891 | 36031 ft | 384 kts | 237° |
| 2026-05-04 18:19 | 53.49680 | 6.99698 | 36024 ft | 384 kts | 237° |
| 2026-05-04 18:19 | 53.46710 | 6.92259 | 36030 ft | 384 kts | 237° |
| 2026-05-04 18:20 | 53.43734 | 6.84839 | 36038 ft | 383 kts | 237° |
| 2026-05-04 18:20 | 53.40751 | 6.77430 | 36039 ft | 383 kts | 237° |
| 2026-05-04 18:21 | 53.37762 | 6.70028 | 36026 ft | 383 kts | 237° |
| 2026-05-04 18:21 | 53.34778 | 6.62638 | 36026 ft | 384 kts | 236° |
| 2026-05-04 18:22 | 53.31781 | 6.55245 | 36028 ft | 384 kts | 236° |
| 2026-05-04 18:22 | 53.28776 | 6.47866 | 36027 ft | 384 kts | 236° |
| 2026-05-04 18:23 | 53.25762 | 6.40480 | 36022 ft | 385 kts | 236° |
| 2026-05-04 18:23 | 53.22760 | 6.33157 | 36032 ft | 385 kts | 236° |
| 2026-05-04 18:24 | 53.19717 | 6.25731 | 36033 ft | 385 kts | 236° |
| 2026-05-04 18:24 | 53.17204 | 6.19616 | 36035 ft | 385 kts | 236° |
| 2026-05-04 18:25 | 53.13659 | 6.11015 | 36051 ft | 385 kts | 236° |
| 2026-05-04 18:25 | 53.10608 | 6.03657 | 36043 ft | 386 kts | 236° |
| 2026-05-04 18:26 | 53.07567 | 5.96354 | 36029 ft | 387 kts | 235° |
| 2026-05-04 18:26 | 53.04510 | 5.88998 | 36036 ft | 387 kts | 235° |
| 2026-05-04 18:27 | 53.01431 | 5.81600 | 36038 ft | 386 kts | 235° |
| 2026-05-04 18:27 | 52.98385 | 5.74322 | 36037 ft | 386 kts | 235° |
| 2026-05-04 18:28 | 52.95314 | 5.67012 | 36036 ft | 386 kts | 235° |
| 2026-05-04 18:28 | 52.92238 | 5.59712 | 36023 ft | 386 kts | 235° |
| 2026-05-04 18:29 | 52.89157 | 5.52419 | 36027 ft | 387 kts | 235° |
| 2026-05-04 18:29 | 52.86069 | 5.45120 | 36015 ft | 387 kts | 234° |
| 2026-05-04 18:30 | 52.81932 | 5.35422 | 36009 ft | 388 kts | 234° |
| 2026-05-04 18:31 | 52.78826 | 5.28127 | 36016 ft | 388 kts | 234° |
| 2026-05-04 18:31 | 52.75695 | 5.20786 | 36027 ft | 388 kts | 234° |
| 2026-05-04 18:32 | 52.72595 | 5.13556 | 36021 ft | 388 kts | 234° |
| 2026-05-04 18:32 | 52.69465 | 5.06295 | 36021 ft | 388 kts | 234° |
| 2026-05-04 18:33 | 52.66327 | 4.99037 | 36033 ft | 389 kts | 234° |
| 2026-05-04 18:33 | 52.63188 | 4.91772 | 36016 ft | 390 kts | 234° |
| 2026-05-04 18:34 | 52.60036 | 4.84510 | 36017 ft | 390 kts | 234° |
| 2026-05-04 18:34 | 52.56876 | 4.77244 | 36014 ft | 391 kts | 234° |
| 2026-05-04 18:35 | 52.53709 | 4.69979 | 36017 ft | 391 kts | 233° |
| 2026-05-04 18:35 | 52.50534 | 4.62724 | 36023 ft | 391 kts | 233° |
| 2026-05-04 18:36 | 52.47360 | 4.55483 | 36026 ft | 391 kts | 233° |
| 2026-05-04 18:36 | 52.44177 | 4.48246 | 36025 ft | 391 kts | 233° |
| 2026-05-04 18:37 | 52.40991 | 4.41039 | 36021 ft | 391 kts | 233° |
| 2026-05-04 18:37 | 52.37794 | 4.33826 | 36019 ft | 391 kts | 233° |
| 2026-05-04 18:38 | 52.34598 | 4.26618 | 36021 ft | 391 kts | 233° |
| 2026-05-04 18:38 | 52.31403 | 4.19415 | 36022 ft | 391 kts | 233° |
| 2026-05-04 18:39 | 52.28200 | 4.12234 | 36021 ft | 391 kts | 233° |
| 2026-05-04 18:39 | 52.24989 | 4.05069 | 36022 ft | 391 kts | 233° |
| 2026-05-04 18:40 | 52.21771 | 3.97908 | 36023 ft | 391 kts | 233° |
| 2026-05-04 18:40 | 52.18550 | 3.90745 | 36022 ft | 392 kts | 232° |
| 2026-05-04 18:41 | 52.15337 | 3.83630 | 36021 ft | 393 kts | 232° |
| 2026-05-04 18:41 | 52.12098 | 3.76464 | 36014 ft | 393 kts | 232° |
| 2026-05-04 18:42 | 52.08821 | 3.69246 | 36020 ft | 394 kts | 232° |
| 2026-05-04 18:42 | 52.05563 | 3.62094 | 36019 ft | 394 kts | 232° |
| 2026-05-04 18:43 | 52.02320 | 3.54990 | 36013 ft | 394 kts | 232° |
| 2026-05-04 18:43 | 51.99043 | 3.47838 | 36021 ft | 394 kts | 232° |
| 2026-05-04 18:44 | 51.95790 | 3.40733 | 36029 ft | 395 kts | 232° |
| 2026-05-04 18:44 | 51.92485 | 3.33533 | 36020 ft | 395 kts | 232° |
| 2026-05-04 18:45 | 51.89209 | 3.26444 | 36033 ft | 396 kts | 232° |
| 2026-05-04 18:45 | 51.86074 | 3.19122 | 36034 ft | 397 kts | 242° |
| 2026-05-04 18:46 | 51.84491 | 3.10553 | 36023 ft | 402 kts | 262° |
| 2026-05-04 18:46 | 51.83921 | 3.01546 | 36022 ft | 403 kts | 261° |
| 2026-05-04 18:47 | 51.83322 | 2.92540 | 36024 ft | 403 kts | 261° |
| 2026-05-04 18:47 | 51.82724 | 2.83526 | 36031 ft | 404 kts | 261° |
| 2026-05-04 18:48 | 51.82116 | 2.74507 | 36029 ft | 404 kts | 261° |
| 2026-05-04 18:48 | 51.81488 | 2.65392 | 36020 ft | 413 kts | 261° |
| 2026-05-04 18:49 | 51.80849 | 2.56133 | 35294 ft | 414 kts | 261° |
| 2026-05-04 18:49 | 51.80528 | 2.51510 | 34326 ft | 414 kts | 261° |
| 2026-05-04 18:49 | 51.80206 | 2.46892 | 33268 ft | 413 kts | 261° |
| 2026-05-04 18:49 | 51.79883 | 2.42284 | 32199 ft | 412 kts | 261° |
| 2026-05-04 18:50 | 51.79559 | 2.37685 | 31163 ft | 411 kts | 261° |
| 2026-05-04 18:50 | 51.79238 | 2.33176 | 30174 ft | 408 kts | 261° |
| 2026-05-04 18:50 | 51.78907 | 2.28572 | 29035 ft | 406 kts | 261° |
| 2026-05-04 18:50 | 51.78585 | 2.24133 | 27936 ft | 403 kts | 261° |
| 2026-05-04 18:51 | 51.78267 | 2.19647 | 27211 ft | 399 kts | 262° |
| 2026-05-04 18:51 | 51.77993 | 2.15244 | 26941 ft | 389 kts | 263° |
| 2026-05-04 18:51 | 51.77751 | 2.10954 | 26680 ft | 381 kts | 263° |
| 2026-05-04 18:51 | 51.77533 | 2.06945 | 26436 ft | 374 kts | 263° |
| 2026-05-04 18:52 | 51.77303 | 2.02803 | 26180 ft | 366 kts | 263° |
| 2026-05-04 18:52 | 51.77072 | 1.98746 | 25916 ft | 359 kts | 263° |
| 2026-05-04 18:52 | 51.76842 | 1.94812 | 25677 ft | 353 kts | 263° |
| 2026-05-04 18:52 | 51.76606 | 1.90882 | 25447 ft | 351 kts | 263° |
| 2026-05-04 18:53 | 51.76366 | 1.86961 | 25194 ft | 350 kts | 263° |
| 2026-05-04 18:53 | 51.76124 | 1.83064 | 24948 ft | 348 kts | 262° |
| 2026-05-04 18:53 | 51.75883 | 1.79202 | 25007 ft | 346 kts | 262° |
| 2026-05-04 18:53 | 51.75640 | 1.75325 | 25023 ft | 348 kts | 262° |
| 2026-05-04 18:54 | 51.75398 | 1.71431 | 25027 ft | 349 kts | 262° |
| 2026-05-04 18:54 | 51.75155 | 1.67540 | 25026 ft | 349 kts | 262° |
| 2026-05-04 18:54 | 51.74909 | 1.63642 | 25027 ft | 348 kts | 262° |
| 2026-05-04 18:54 | 51.74663 | 1.59762 | 24961 ft | 349 kts | 262° |
| 2026-05-04 18:55 | 51.74413 | 1.55823 | 24312 ft | 356 kts | 262° |
| 2026-05-04 18:55 | 51.73900 | 1.47862 | 23182 ft | 359 kts | 262° |
| 2026-05-04 18:55 | 51.73643 | 1.43864 | 22643 ft | 359 kts | 262° |
| 2026-05-04 18:56 | 51.73388 | 1.39870 | 22101 ft | 358 kts | 262° |
| 2026-05-04 18:56 | 51.73132 | 1.35873 | 21565 ft | 357 kts | 262° |
| 2026-05-04 18:56 | 51.72874 | 1.31891 | 21032 ft | 357 kts | 262° |
| 2026-05-04 18:56 | 51.72612 | 1.27923 | 20533 ft | 355 kts | 262° |
| 2026-05-04 18:57 | 51.72349 | 1.23977 | 20037 ft | 354 kts | 262° |
| 2026-05-04 18:57 | 51.72091 | 1.20087 | 19634 ft | 350 kts | 262° |
| 2026-05-04 18:57 | 51.71833 | 1.16223 | 19046 ft | 344 kts | 262° |
| 2026-05-04 18:57 | 51.71573 | 1.12368 | 18409 ft | 337 kts | 262° |
| 2026-05-04 18:58 | 51.71323 | 1.08729 | 17874 ft | 328 kts | 262° |
| 2026-05-04 18:58 | 51.71075 | 1.05124 | 17387 ft | 320 kts | 262° |
| 2026-05-04 18:58 | 51.70832 | 1.01574 | 16910 ft | 320 kts | 262° |
| 2026-05-04 18:58 | 51.70592 | 0.98090 | 16436 ft | 322 kts | 263° |
| 2026-05-04 18:59 | 51.70341 | 0.94425 | 15939 ft | 323 kts | 263° |
| 2026-05-04 18:59 | 51.70093 | 0.90828 | 15512 ft | 323 kts | 263° |
| 2026-05-04 18:59 | 51.69845 | 0.87224 | 15062 ft | 323 kts | 263° |
| 2026-05-04 18:59 | 51.69596 | 0.83628 | 14641 ft | 324 kts | 263° |
| 2026-05-04 19:00 | 51.69346 | 0.80029 | 14203 ft | 324 kts | 264° |
| 2026-05-04 19:00 | 51.69092 | 0.76434 | 13765 ft | 325 kts | 264° |
| 2026-05-04 19:00 | 51.68832 | 0.72805 | 13284 ft | 325 kts | 263° |
| 2026-05-04 19:00 | 51.68574 | 0.69210 | 12848 ft | 323 kts | 263° |
| 2026-05-04 19:01 | 51.68317 | 0.65613 | 12419 ft | 322 kts | 263° |
| 2026-05-04 19:01 | 51.68062 | 0.62063 | 12061 ft | 318 kts | 263° |
| 2026-05-04 19:01 | 51.67805 | 0.58516 | 11671 ft | 316 kts | 263° |
| 2026-05-04 19:01 | 51.67549 | 0.55021 | 11337 ft | 313 kts | 263° |
| 2026-05-04 19:02 | 51.67296 | 0.51546 | 10928 ft | 312 kts | 263° |
| 2026-05-04 19:02 | 51.67046 | 0.48088 | 10565 ft | 310 kts | 263° |
| 2026-05-04 19:02 | 51.66801 | 0.44684 | 10425 ft | 300 kts | 263° |
| 2026-05-04 19:02 | 51.66562 | 0.41408 | 10272 ft | 291 kts | 263° |
| 2026-05-04 19:03 | 51.66325 | 0.38213 | 9784 ft | 285 kts | 263° |
| 2026-05-04 19:03 | 51.66090 | 0.35070 | 9186 ft | 280 kts | 263° |
| 2026-05-04 19:03 | 51.65859 | 0.31960 | 8553 ft | 278 kts | 263° |
| 2026-05-04 19:03 | 51.65633 | 0.28899 | 8107 ft | 271 kts | 263° |
| 2026-05-04 19:04 | 51.65412 | 0.25941 | 8013 ft | 270 kts | 263° |
| 2026-05-04 19:04 | 51.65186 | 0.22940 | 8021 ft | 264 kts | 263° |
| 2026-05-04 19:04 | 51.64974 | 0.20112 | 8036 ft | 252 kts | 263° |
| 2026-05-04 19:04 | 51.64758 | 0.17199 | 8035 ft | 268 kts | 263° |
| 2026-05-04 19:05 | 51.64542 | 0.14195 | 8030 ft | 272 kts | 265° |
| 2026-05-04 19:05 | 51.64396 | 0.11216 | 8021 ft | 258 kts | 266° |
| 2026-05-04 19:05 | 51.64316 | 0.09308 | 8026 ft | 248 kts | 266° |
| 2026-05-04 19:05 | 51.64177 | 0.05949 | 8036 ft | 239 kts | 266° |
| 2026-05-04 19:06 | 51.64069 | 0.03260 | 8028 ft | 240 kts | 266° |
| 2026-05-04 19:06 | 51.63958 | 0.00603 | 8025 ft | 238 kts | 266° |
| 2026-05-04 19:06 | 51.63847 | -0.02084 | 8049 ft | 241 kts | 266° |
| 2026-05-04 19:06 | 51.63746 | -0.04766 | 8050 ft | 240 kts | 266° |
| 2026-05-04 19:07 | 51.63646 | -0.07458 | 8052 ft | 241 kts | 266° |
| 2026-05-04 19:07 | 51.63550 | -0.10126 | 8050 ft | 238 kts | 266° |
| 2026-05-04 19:07 | 51.63451 | -0.12810 | 8053 ft | 241 kts | 266° |
| 2026-05-04 19:07 | 51.63352 | -0.15484 | 8055 ft | 239 kts | 266° |
| 2026-05-04 19:08 | 51.63254 | -0.18148 | 8053 ft | 238 kts | 266° |
| 2026-05-04 19:08 | 51.63159 | -0.20800 | 8065 ft | 238 kts | 266° |
| 2026-05-04 19:08 | 51.63061 | -0.23473 | 8057 ft | 240 kts | 266° |
| 2026-05-04 19:08 | 51.62962 | -0.26118 | 8061 ft | 238 kts | 266° |
| 2026-05-04 19:09 | 51.62865 | -0.28734 | 8052 ft | 240 kts | 266° |
| 2026-05-04 19:09 | 51.62762 | -0.31427 | 8052 ft | 241 kts | 266° |
| 2026-05-04 19:09 | 51.62658 | -0.34102 | 7784 ft | 239 kts | 266° |
| 2026-05-04 19:09 | 51.62557 | -0.36761 | 7505 ft | 237 kts | 266° |
| 2026-05-04 19:10 | 51.62456 | -0.39398 | 7226 ft | 236 kts | 266° |
| 2026-05-04 19:10 | 51.62352 | -0.42032 | 7007 ft | 235 kts | 266° |
| 2026-05-04 19:10 | 51.62249 | -0.44652 | 7007 ft | 235 kts | 266° |
| 2026-05-04 19:10 | 51.62018 | -0.47226 | 6803 ft | 233 kts | 252° |
| 2026-05-04 19:11 | 51.61417 | -0.49647 | 6483 ft | 234 kts | 247° |
| 2026-05-04 19:11 | 51.60754 | -0.52030 | 6176 ft | 234 kts | 246° |
| 2026-05-04 19:11 | 51.60082 | -0.54417 | 5844 ft | 234 kts | 246° |
| 2026-05-04 19:11 | 51.59413 | -0.56800 | 5509 ft | 234 kts | 246° |
| 2026-05-04 19:12 | 51.58740 | -0.59179 | 5229 ft | 233 kts | 246° |
| 2026-05-04 19:12 | 51.57390 | -0.63910 | 4600 ft | 232 kts | 246° |
| 2026-05-04 19:12 | 51.56712 | -0.66275 | 4220 ft | 235 kts | 246° |
| 2026-05-04 19:13 | 51.56032 | -0.68673 | 3868 ft | 236 kts | 246° |
| 2026-05-04 19:13 | 51.55345 | -0.71084 | 3585 ft | 236 kts | 246° |
| 2026-05-04 19:13 | 51.54669 | -0.73431 | 3448 ft | 227 kts | 242° |
| 2026-05-04 19:13 | 51.53683 | -0.75305 | 3316 ft | 218 kts | 211° |
| 2026-05-04 19:14 | 51.52297 | -0.76038 | 3188 ft | 206 kts | 186° |
| 2026-05-04 19:14 | 51.50898 | -0.76246 | 3110 ft | 199 kts | 181° |
| 2026-05-04 19:14 | 51.49601 | -0.76386 | 3026 ft | 196 kts | 180° |
| 2026-05-04 19:14 | 51.48765 | -0.76480 | 3004 ft | 196 kts | 181° |
| 2026-05-04 19:15 | 51.47184 | -0.76628 | 3007 ft | 196 kts | 174° |
| 2026-05-04 19:15 | 51.46385 | -0.76324 | 3004 ft | 190 kts | 149° |
| 2026-05-04 19:15 | 51.45377 | -0.74297 | 2765 ft | 169 kts | 95° |
| 2026-05-04 19:15 | 51.45451 | -0.73117 | 2653 ft | 157 kts | 67° |
| 2026-05-04 19:16 | 51.46010 | -0.71636 | 2565 ft | 156 kts | 53° |
| 2026-05-04 19:16 | 51.46677 | -0.70257 | 2511 ft | 156 kts | 51° |
| 2026-05-04 19:16 | 51.47344 | -0.68886 | 2486 ft | 157 kts | 57° |
| 2026-05-04 19:16 | 51.47660 | -0.67241 | 2371 ft | 156 kts | 85° |
| 2026-05-04 19:17 | 51.47669 | -0.65491 | 2196 ft | 157 kts | 86° |
| 2026-05-04 19:17 | 51.47677 | -0.63755 | 2019 ft | 157 kts | 87° |
| 2026-05-04 19:17 | 51.47686 | -0.62007 | 1797 ft | 156 kts | 86° |
| 2026-05-04 19:17 | 51.47693 | -0.60298 | 1567 ft | 144 kts | 86° |
| 2026-05-04 19:18 | 51.47700 | -0.58823 | 1387 ft | 128 kts | 86° |
| 2026-05-04 19:18 | 51.47707 | -0.57422 | 1219 ft | 122 kts | 85° |
| 2026-05-04 19:18 | 51.47712 | -0.56072 | 1039 ft | 121 kts | 86° |
| 2026-05-04 19:18 | 51.47719 | -0.54696 | 906 ft | 127 kts | 86° |
| 2026-05-04 19:19 | 51.47727 | -0.53250 | 820 ft | 133 kts | 85° |
| 2026-05-04 19:19 | 51.47728 | -0.51782 | 597 ft | 130 kts | 88° |
| 2026-05-04 19:19 | 51.47740 | -0.50346 | 364 ft | 129 kts | 86° |
| 2026-05-04 19:19 | 51.47748 | -0.48891 | 202 ft | 132 kts | 87° |
| 2026-05-04 19:20 | 51.47753 | -0.47460 | 87 ft | 118 kts | 89° |
| 2026-05-04 19:20 | 51.47758 | -0.46307 | 90 ft | 88 kts | 89° |
| 2026-05-04 19:20 | 51.47760 | -0.45561 | 85 ft | 24 kts | 94° |
| 2026-05-04 19:20 | 51.47638 | -0.45467 | 86 ft | 23 kts | 186° |
| 2026-05-04 19:21 | 51.47595 | -0.45538 | 86 ft | 0 kts | 275° |
| 2026-05-04 19:22 | 51.47595 | -0.45539 | 86 ft | 0 kts | 274° |
| 2026-05-04 19:22 | 51.47596 | -0.45594 | 88 ft | 10 kts | 270° |